createdAt,value
2022-12-24T00:00:05.394Z,20.97
2022-12-24T00:02:33.904Z,20.80
2022-12-24T00:05:03.938Z,20.10
2022-12-24T00:07:32.598Z,21.77
2022-12-24T00:10:00.984Z,20.77
2022-12-24T00:12:29.383Z,20.37
2022-12-24T00:14:57.820Z,20.63
2022-12-24T00:17:26.224Z,23.07
2022-12-24T00:19:54.629Z,22.37
2022-12-24T00:22:24.644Z,21.90
2022-12-24T00:24:53.022Z,21.77
2022-12-24T00:27:21.411Z,21.43
2022-12-24T00:29:49.778Z,20.70
2022-12-24T00:32:18.132Z,20.67
2022-12-24T00:34:46.505Z,21.27
2022-12-24T00:37:14.917Z,21.27
2022-12-24T00:39:44.623Z,20.37
2022-12-24T00:42:13.243Z,19.57
2022-12-24T00:44:41.637Z,20.80
2022-12-24T00:47:12.145Z,21.23
2022-12-24T00:49:40.807Z,19.77
2022-12-24T00:52:09.183Z,20.50
2022-12-24T00:54:37.797Z,20.40
2022-12-24T00:57:07.510Z,20.00
2022-12-24T00:59:35.864Z,19.43
2022-12-24T01:02:04.392Z,20.97
2022-12-24T01:04:50.553Z,20.53
2022-12-24T01:07:19.296Z,20.60
2022-12-24T01:09:47.711Z,19.10
2022-12-24T01:12:17.587Z,20.37
2022-12-24T01:14:46.079Z,19.97
2022-12-24T01:17:14.409Z,19.37
2022-12-24T01:19:42.763Z,18.63
2022-12-24T01:22:11.383Z,18.27
2022-12-24T01:24:41.166Z,19.57
2022-12-24T01:27:10.071Z,20.93
2022-12-24T01:29:39.841Z,20.87
2022-12-24T01:32:08.651Z,21.17
2022-12-24T01:34:37.228Z,21.37
2022-12-24T01:37:05.659Z,19.77
2022-12-24T01:39:34.520Z,20.10
2022-12-24T01:42:20.609Z,19.47
2022-12-24T01:44:53.332Z,20.10
2022-12-24T01:47:26.934Z,19.27
2022-12-24T01:49:59.933Z,19.40
2022-12-24T01:52:34.498Z,20.07
2022-12-24T01:55:09.166Z,19.77
2022-12-24T01:57:44.011Z,19.83
2022-12-24T02:00:17.102Z,19.80
2022-12-24T02:02:48.024Z,19.90
2022-12-24T02:05:23.587Z,19.47
2022-12-24T02:07:52.347Z,20.87
2022-12-24T02:10:21.131Z,20.10
2022-12-24T02:12:50.635Z,20.07
2022-12-24T02:15:21.921Z,20.77
2022-12-24T02:18:00.635Z,20.07
2022-12-24T02:21:24.708Z,20.50
2022-12-24T02:24:23.536Z,20.13
2022-12-24T02:27:26.146Z,21.10
2022-12-24T02:30:13.630Z,19.70
2022-12-24T02:33:00.241Z,20.10
2022-12-24T02:35:38.998Z,21.10
2022-12-24T02:38:16.440Z,20.90
2022-12-24T02:40:51.708Z,21.97
2022-12-24T02:43:27.027Z,20.40
2022-12-24T02:46:01.103Z,22.30
2022-12-24T02:48:31.382Z,21.63
2022-12-24T02:51:04.481Z,22.20
2022-12-24T02:53:34.162Z,22.43
2022-12-24T02:56:53.575Z,21.90
2022-12-24T02:59:52.796Z,21.43
2022-12-24T03:02:37.049Z,21.77
2022-12-24T03:05:20.774Z,21.83
2022-12-24T03:08:03.747Z,22.97
2022-12-24T03:10:41.104Z,23.23
2022-12-24T03:13:15.234Z,22.23
2022-12-24T03:15:44.845Z,19.83
2022-12-24T03:18:18.362Z,21.67
2022-12-24T03:20:51.733Z,21.17
2022-12-24T03:23:20.353Z,20.43
2022-12-24T03:25:48.818Z,19.93
2022-12-24T03:28:20.039Z,21.13
2022-12-24T03:30:49.857Z,19.97
2022-12-24T03:33:19.693Z,21.00
2022-12-24T03:35:48.086Z,20.80
2022-12-24T03:38:16.442Z,22.53
2022-12-24T03:40:44.940Z,22.73
2022-12-24T03:43:13.305Z,21.57
2022-12-24T03:45:41.713Z,21.43
2022-12-24T03:48:10.193Z,21.57
2022-12-24T03:50:39.921Z,22.00
2022-12-24T03:53:08.262Z,20.07
2022-12-24T03:55:38.902Z,21.50
2022-12-24T03:58:07.474Z,19.33
2022-12-24T04:00:35.928Z,20.17
2022-12-24T04:03:04.378Z,20.93
2022-12-24T04:05:32.768Z,23.50
2022-12-24T04:08:02.475Z,22.67
2022-12-24T04:10:30.909Z,22.10
2022-12-24T04:12:59.401Z,23.00
2022-12-24T04:15:27.829Z,23.07
2022-12-24T04:17:56.246Z,22.03
2022-12-24T04:20:24.629Z,21.27
2022-12-24T04:22:55.437Z,20.83
2022-12-24T04:25:25.156Z,20.83
2022-12-24T04:27:53.513Z,19.33
2022-12-24T04:30:21.884Z,19.23
2022-12-24T04:32:50.276Z,17.63
2022-12-24T04:35:18.808Z,18.63
2022-12-24T04:37:47.163Z,18.10
2022-12-24T04:40:15.703Z,18.20
2022-12-24T04:42:45.379Z,18.07
2022-12-24T04:45:13.737Z,18.20
2022-12-24T04:47:42.088Z,17.90
2022-12-24T04:50:11.940Z,17.77
2022-12-24T04:52:40.327Z,17.53
2022-12-24T04:55:10.115Z,18.60
2022-12-24T04:57:38.469Z,16.53
2022-12-24T05:00:10.562Z,15.47
2022-12-24T05:02:39.070Z,15.57
2022-12-24T05:05:08.524Z,14.20
2022-12-24T05:07:36.864Z,13.70
2022-12-24T05:10:06.065Z,13.27
2022-12-24T05:12:34.502Z,13.77
2022-12-24T05:15:04.297Z,12.40
2022-12-24T05:17:34.051Z,12.00
2022-12-24T05:20:02.387Z,12.30
2022-12-24T05:22:48.147Z,11.60
2022-12-24T05:25:34.232Z,12.77
2022-12-24T05:28:02.696Z,12.23
2022-12-24T05:30:31.101Z,12.20
2022-12-24T05:33:00.962Z,11.90
2022-12-24T05:35:29.305Z,12.30
2022-12-24T05:37:59.357Z,12.03
2022-12-24T05:40:27.874Z,11.87
2022-12-24T05:42:56.304Z,13.13
2022-12-24T05:45:24.636Z,11.93
2022-12-24T05:47:52.997Z,12.37
2022-12-24T05:50:22.691Z,12.67
2022-12-24T05:52:51.182Z,12.47
2022-12-24T05:55:19.685Z,11.60
2022-12-24T05:57:48.050Z,11.43
2022-12-24T06:00:17.368Z,11.23
2022-12-24T06:02:45.775Z,11.50
2022-12-24T06:05:14.278Z,11.37
2022-12-24T06:07:44.161Z,11.43
2022-12-24T06:10:12.792Z,12.13
2022-12-24T06:12:41.103Z,11.87
2022-12-24T06:15:11.679Z,10.87
2022-12-24T06:17:40.116Z,12.07
2022-12-24T06:20:10.043Z,11.57
2022-12-24T06:22:38.388Z,12.50
2022-12-24T06:25:09.364Z,11.80
2022-12-24T06:27:37.800Z,11.50
2022-12-24T06:30:08.422Z,11.37
2022-12-24T06:32:36.812Z,11.00
2022-12-24T06:35:07.091Z,10.77
2022-12-24T06:37:35.398Z,11.40
2022-12-24T06:40:04.020Z,11.57
2022-12-24T06:42:33.758Z,10.83
2022-12-24T06:45:07.796Z,12.43
2022-12-24T06:47:36.960Z,11.20
2022-12-24T06:50:06.541Z,12.03
2022-12-24T06:52:34.979Z,11.87
2022-12-24T06:55:03.576Z,11.33
2022-12-24T06:57:33.347Z,11.30
2022-12-24T07:00:02.174Z,11.93
2022-12-24T07:02:30.693Z,13.13
2022-12-24T07:04:59.116Z,13.00
2022-12-24T07:07:27.499Z,11.40
2022-12-24T07:09:57.309Z,12.53
2022-12-24T07:12:25.685Z,11.77
2022-12-24T07:14:55.505Z,12.60
2022-12-24T07:17:23.989Z,12.10
2022-12-24T07:19:52.521Z,12.13
2022-12-24T07:22:20.947Z,11.57
2022-12-24T07:24:49.337Z,10.70
2022-12-24T07:27:17.850Z,12.10
2022-12-24T07:29:46.210Z,11.37
2022-12-24T07:32:16.311Z,11.87
2022-12-24T07:34:44.718Z,12.43
2022-12-24T07:37:13.267Z,12.10
2022-12-24T07:39:41.657Z,12.43
2022-12-24T07:42:10.115Z,10.83
2022-12-24T07:44:38.702Z,11.77
2022-12-24T07:47:07.238Z,11.77
2022-12-24T07:49:37.450Z,11.40
2022-12-24T07:52:06.361Z,11.73
2022-12-24T07:54:34.892Z,10.30
2022-12-24T07:57:03.388Z,10.73
2022-12-24T07:59:31.765Z,11.13
2022-12-24T08:02:00.417Z,10.73
2022-12-24T08:04:28.961Z,11.77
2022-12-24T08:06:58.701Z,10.67
2022-12-24T08:09:27.649Z,11.33
2022-12-24T08:11:56.113Z,11.10
2022-12-24T08:14:24.834Z,10.87
2022-12-24T08:16:53.211Z,11.00
2022-12-24T08:19:22.163Z,10.27
2022-12-24T08:21:50.949Z,10.40
2022-12-24T08:24:20.699Z,9.87
2022-12-24T08:26:49.222Z,9.87
2022-12-24T08:29:17.713Z,10.27
2022-12-24T08:31:46.217Z,10.03
2022-12-24T08:34:14.626Z,9.97
2022-12-24T08:36:43.063Z,10.60
2022-12-24T08:39:11.880Z,10.97
2022-12-24T08:41:41.637Z,10.17
2022-12-24T08:44:09.965Z,10.80
2022-12-24T08:46:38.698Z,10.03
2022-12-24T08:49:07.158Z,10.13
2022-12-24T08:51:35.546Z,10.43
2022-12-24T08:54:03.911Z,9.93
2022-12-24T08:56:32.360Z,9.87
2022-12-24T08:59:02.105Z,9.90
2022-12-24T09:01:31.980Z,9.93
2022-12-24T09:04:03.034Z,10.10
2022-12-24T09:06:32.569Z,9.17
2022-12-24T09:09:01.065Z,8.90
2022-12-24T09:11:29.795Z,8.93
2022-12-24T09:13:58.277Z,9.47
2022-12-24T09:16:28.151Z,9.93
2022-12-24T09:18:57.852Z,9.83
2022-12-24T09:21:26.524Z,10.20
2022-12-24T09:23:54.898Z,9.50
2022-12-24T09:26:26.855Z,10.27
2022-12-24T09:28:55.524Z,10.83
2022-12-24T09:31:24.083Z,10.63
2022-12-24T09:33:54.283Z,10.83
2022-12-24T09:36:22.952Z,10.87
2022-12-24T09:38:51.555Z,10.23
2022-12-24T09:41:42.344Z,10.03
2022-12-24T09:44:26.159Z,10.43
2022-12-24T09:46:56.122Z,11.47
2022-12-24T09:49:35.586Z,10.70
2022-12-24T09:52:11.540Z,10.43
2022-12-24T09:54:49.651Z,9.20
2022-12-24T09:57:30.780Z,9.73
2022-12-24T09:59:59.236Z,9.37
2022-12-24T10:02:27.905Z,9.53
2022-12-24T10:04:57.971Z,9.40
2022-12-24T10:07:42.558Z,8.60
2022-12-24T10:10:24.061Z,7.70
2022-12-24T10:13:03.401Z,7.57
2022-12-24T10:15:40.795Z,8.03
2022-12-24T10:18:27.147Z,7.37
2022-12-24T10:21:07.158Z,7.90
2022-12-24T10:23:42.037Z,8.00
2022-12-24T10:26:17.171Z,8.17
2022-12-24T10:28:52.273Z,8.73
2022-12-24T10:31:26.974Z,10.63
2022-12-24T10:34:01.021Z,9.07
2022-12-24T10:36:32.732Z,8.63
2022-12-24T10:39:01.547Z,8.50
2022-12-24T10:41:31.405Z,8.80
2022-12-24T10:44:01.257Z,9.50
2022-12-24T10:46:36.517Z,9.37
2022-12-24T10:49:08.395Z,8.73
2022-12-24T10:51:46.724Z,9.70
2022-12-24T10:54:26.302Z,9.20
2022-12-24T10:56:59.813Z,10.80
2022-12-24T10:59:31.731Z,12.60
2022-12-24T11:02:01.851Z,13.03
2022-12-24T11:04:33.867Z,12.70
2022-12-24T11:07:07.924Z,13.63
2022-12-24T11:09:41.626Z,12.70
2022-12-24T11:12:22.890Z,13.83
2022-12-24T11:15:06.109Z,14.70
2022-12-24T11:17:35.275Z,12.30
2022-12-24T11:20:04.527Z,11.20
2022-12-24T11:22:35.230Z,12.53
2022-12-24T11:25:09.372Z,12.53
2022-12-24T11:27:44.468Z,13.40
2022-12-24T11:30:33.903Z,12.43
2022-12-24T11:33:20.216Z,13.03
2022-12-24T11:35:56.196Z,13.23
2022-12-24T11:38:28.468Z,14.67
2022-12-24T11:41:07.054Z,14.33
2022-12-24T11:43:48.331Z,13.57
2022-12-24T11:46:38.476Z,14.07
2022-12-24T11:49:18.088Z,14.10
2022-12-24T11:52:31.054Z,14.77
2022-12-24T11:55:17.726Z,14.17
2022-12-24T11:57:57.421Z,14.47
2022-12-24T12:00:27.885Z,15.00
2022-12-24T12:03:02.129Z,14.67
2022-12-24T12:05:34.678Z,14.77
2022-12-24T12:08:12.143Z,15.17
2022-12-24T12:10:44.202Z,14.73
2022-12-24T12:13:17.902Z,15.00
2022-12-24T12:15:51.315Z,14.30
2022-12-24T12:18:27.441Z,14.93
2022-12-24T12:21:01.996Z,15.77
2022-12-24T12:23:34.225Z,14.03
2022-12-24T12:26:11.126Z,15.40
2022-12-24T12:28:46.992Z,15.83
2022-12-24T12:31:23.973Z,16.07
2022-12-24T12:34:00.402Z,16.37
2022-12-24T12:36:34.613Z,15.47
2022-12-24T12:39:03.178Z,15.30
2022-12-24T12:41:55.111Z,15.90
2022-12-24T12:44:55.688Z,16.30
2022-12-24T12:47:51.674Z,17.00
2022-12-24T12:50:26.560Z,16.97
2022-12-24T12:53:20.440Z,15.43
2022-12-24T12:56:00.038Z,19.43
2022-12-24T12:58:36.099Z,15.33
2022-12-24T13:01:12.444Z,15.73
2022-12-24T13:04:32.425Z,14.77
2022-12-24T13:07:50.774Z,14.13
2022-12-24T13:10:53.084Z,14.50
2022-12-24T13:14:04.972Z,15.93
2022-12-24T13:17:09.513Z,16.37
2022-12-24T13:19:58.562Z,16.57
2022-12-24T13:22:26.993Z,16.70
2022-12-24T13:24:57.379Z,16.57
2022-12-24T13:27:28.691Z,16.97
2022-12-24T13:30:07.234Z,16.17
2022-12-24T13:32:55.689Z,16.43
2022-12-24T13:35:38.521Z,15.23
2022-12-24T13:38:33.473Z,15.20
2022-12-24T13:41:56.842Z,16.03
2022-12-24T13:44:33.912Z,14.73
2022-12-24T13:47:30.133Z,16.67
2022-12-24T13:50:23.675Z,15.60
2022-12-24T13:52:54.265Z,16.60
2022-12-24T13:55:23.220Z,15.43
2022-12-24T13:57:59.128Z,17.30
2022-12-24T14:00:41.396Z,14.50
2022-12-24T14:03:29.438Z,16.23
2022-12-24T14:06:02.700Z,15.37
2022-12-24T14:08:38.841Z,15.47
2022-12-24T14:11:14.685Z,16.67
2022-12-24T14:14:13.571Z,15.13
2022-12-24T14:16:52.181Z,15.97
2022-12-24T14:19:26.500Z,17.07
2022-12-24T14:22:02.597Z,16.30
2022-12-24T14:24:36.801Z,15.93
2022-12-24T14:27:18.783Z,16.97
2022-12-24T14:29:53.434Z,17.10
2022-12-24T14:32:22.188Z,20.00
2022-12-24T14:35:08.302Z,19.77
2022-12-24T14:37:37.818Z,20.30
2022-12-24T14:40:07.590Z,20.00
2022-12-24T14:42:45.066Z,19.50
2022-12-24T14:45:26.365Z,20.17
2022-12-24T14:48:06.505Z,19.93
2022-12-24T14:50:56.047Z,19.60
2022-12-24T14:53:49.308Z,17.93
2022-12-24T14:56:20.651Z,17.43
2022-12-24T14:58:50.367Z,20.23
2022-12-24T15:01:25.652Z,18.43
2022-12-24T15:04:06.063Z,18.43
2022-12-24T15:06:39.462Z,18.97
2022-12-24T15:09:15.188Z,16.67
2022-12-24T15:11:46.318Z,16.40
2022-12-24T15:14:16.005Z,16.93
2022-12-24T15:16:55.986Z,16.37
2022-12-24T15:19:28.387Z,17.33
2022-12-24T15:21:58.120Z,16.67
2022-12-24T15:24:32.478Z,16.90
2022-12-24T15:27:03.035Z,16.90
2022-12-24T15:29:33.476Z,17.00
2022-12-24T15:32:04.931Z,15.80
2022-12-24T15:34:40.053Z,16.73
2022-12-24T15:37:19.644Z,15.53
2022-12-24T15:39:56.690Z,16.33
2022-12-24T15:42:27.437Z,14.57
2022-12-24T15:45:04.595Z,16.13
2022-12-24T15:47:38.216Z,16.33
2022-12-24T15:50:16.403Z,16.87
2022-12-24T15:52:47.289Z,16.07
2022-12-24T15:55:42.195Z,16.27
2022-12-24T15:58:27.940Z,15.97
2022-12-24T16:01:28.325Z,16.97
2022-12-24T16:04:00.742Z,16.87
2022-12-24T16:06:49.629Z,18.27
2022-12-24T16:09:45.762Z,14.87
2022-12-24T16:12:18.832Z,17.30
2022-12-24T16:14:55.153Z,16.90
2022-12-24T16:17:26.553Z,17.60
2022-12-24T16:19:57.879Z,17.63
2022-12-24T16:22:32.705Z,15.70
2022-12-24T16:25:16.384Z,18.10
2022-12-24T16:27:44.871Z,18.43
2022-12-24T16:30:14.253Z,16.87
2022-12-24T16:32:43.175Z,20.07
2022-12-24T16:35:25.945Z,18.17
2022-12-24T16:37:54.841Z,17.73
2022-12-24T16:40:27.626Z,17.67
2022-12-24T16:43:15.530Z,17.80
2022-12-24T16:45:45.223Z,17.07
2022-12-24T16:48:22.426Z,18.37
2022-12-24T16:50:51.860Z,18.17
2022-12-24T16:53:22.625Z,18.93
2022-12-24T16:55:53.486Z,18.13
2022-12-24T16:58:23.048Z,18.20
2022-12-24T17:00:51.475Z,18.00
2022-12-24T17:03:19.940Z,19.43
2022-12-24T17:05:48.449Z,18.87
2022-12-24T17:08:16.852Z,17.87
2022-12-24T17:10:53.338Z,18.27
2022-12-24T17:13:21.967Z,18.10
2022-12-24T17:15:50.447Z,18.00
2022-12-24T17:18:18.810Z,17.77
2022-12-24T17:20:47.318Z,17.53
2022-12-24T17:23:15.709Z,17.97
2022-12-24T17:25:44.075Z,17.17
2022-12-24T17:28:13.926Z,17.07
2022-12-24T17:30:42.545Z,18.23
2022-12-24T17:33:14.826Z,17.60
2022-12-24T17:35:44.677Z,18.73
2022-12-24T17:38:13.129Z,18.63
2022-12-24T17:40:41.478Z,17.07
2022-12-24T17:43:09.880Z,18.20
2022-12-24T17:45:43.237Z,17.73
2022-12-24T17:48:11.661Z,17.27
2022-12-24T17:50:40.804Z,17.97
2022-12-24T17:53:09.255Z,17.67
2022-12-24T17:55:42.035Z,17.60
2022-12-24T17:58:10.718Z,19.27
2022-12-24T18:00:39.307Z,18.77
2022-12-24T18:03:13.570Z,18.07
2022-12-24T18:05:42.065Z,17.70
2022-12-24T18:08:10.565Z,18.10
2022-12-24T18:10:39.006Z,16.57
2022-12-24T18:13:09.580Z,17.80
2022-12-24T18:15:41.540Z,17.47
2022-12-24T18:18:11.793Z,18.10
2022-12-24T18:20:46.362Z,18.20
2022-12-24T18:23:15.440Z,19.27
2022-12-24T18:25:43.890Z,19.87
2022-12-24T18:28:12.267Z,18.23
2022-12-24T18:30:40.579Z,18.13
2022-12-24T18:33:10.363Z,17.63
2022-12-24T18:35:39.306Z,20.07
2022-12-24T18:38:08.097Z,18.80
2022-12-24T18:40:38.410Z,16.93
2022-12-24T18:43:06.806Z,16.03
2022-12-24T18:45:35.404Z,16.33
2022-12-24T18:48:03.808Z,17.03
2022-12-24T18:50:33.538Z,15.40
2022-12-24T18:53:01.899Z,18.20
2022-12-24T18:55:30.228Z,15.73
2022-12-24T18:57:58.584Z,18.03
2022-12-24T19:00:27.378Z,18.97
2022-12-24T19:02:55.850Z,18.10
2022-12-24T19:05:24.317Z,16.93
2022-12-24T19:07:54.024Z,18.87
2022-12-24T19:10:22.411Z,17.13
2022-12-24T19:12:54.496Z,17.23
2022-12-24T19:15:29.400Z,16.30
2022-12-24T19:18:01.286Z,17.80
2022-12-24T19:20:30.076Z,17.20
2022-12-24T19:23:00.474Z,17.93
2022-12-24T19:25:31.997Z,17.20
2022-12-24T19:28:01.201Z,17.10
2022-12-24T19:30:30.297Z,18.23
2022-12-24T19:33:02.668Z,18.90
2022-12-24T19:35:34.180Z,18.50
2022-12-24T19:38:04.435Z,17.33
2022-12-24T19:40:37.723Z,19.07
2022-12-24T19:43:06.889Z,18.43
2022-12-24T19:45:38.655Z,19.07
2022-12-24T19:48:10.893Z,17.63
2022-12-24T19:50:39.791Z,18.83
2022-12-24T19:53:12.477Z,19.40
2022-12-24T19:55:49.151Z,16.87
2022-12-24T19:58:18.199Z,17.10
2022-12-24T20:00:47.255Z,17.27
2022-12-24T20:03:18.480Z,16.20
2022-12-24T20:05:47.621Z,16.23
2022-12-24T20:08:17.453Z,15.83
2022-12-24T20:10:46.022Z,17.40
2022-12-24T20:13:14.634Z,15.57
2022-12-24T20:15:46.233Z,16.57
2022-12-24T20:18:16.630Z,16.63
2022-12-24T20:20:45.447Z,16.10
2022-12-24T20:23:13.862Z,15.83
2022-12-24T20:25:46.536Z,17.07
2022-12-24T20:28:14.988Z,14.93
2022-12-24T20:30:43.350Z,15.50
2022-12-24T20:33:11.761Z,15.10
2022-12-24T20:35:40.180Z,15.10
2022-12-24T20:38:08.602Z,14.33
2022-12-24T20:40:40.798Z,15.10
2022-12-24T20:43:11.249Z,15.07
2022-12-24T20:45:40.093Z,15.03
2022-12-24T20:48:08.921Z,15.50
2022-12-24T20:50:42.368Z,14.93
2022-12-24T20:53:10.768Z,16.20
2022-12-24T20:55:39.339Z,13.00
2022-12-24T20:58:09.372Z,14.67
2022-12-24T21:00:38.024Z,16.73
2022-12-24T21:03:06.590Z,14.20
2022-12-24T21:05:35.244Z,14.90
2022-12-24T21:08:03.690Z,14.67
2022-12-24T21:10:34.382Z,14.47
2022-12-24T21:13:02.186Z,14.80
2022-12-24T21:15:35.625Z,14.77
2022-12-24T21:18:11.054Z,14.97
2022-12-24T21:20:41.569Z,14.97
2022-12-24T21:23:11.894Z,14.10
2022-12-24T21:25:40.537Z,14.80
2022-12-24T21:28:10.218Z,13.77
2022-12-24T21:30:42.864Z,14.43
2022-12-24T21:33:16.516Z,14.93
2022-12-24T21:35:44.912Z,14.40
2022-12-24T21:38:13.734Z,14.27
2022-12-24T21:40:42.395Z,13.97
2022-12-24T21:43:10.884Z,13.67
2022-12-24T21:45:43.151Z,14.90
2022-12-24T21:48:25.511Z,13.47
2022-12-24T21:50:56.925Z,13.87
2022-12-24T21:53:43.270Z,14.33
2022-12-24T21:56:13.064Z,14.30
2022-12-24T21:58:40.789Z,13.63
2022-12-24T22:01:12.421Z,13.00
2022-12-24T22:03:41.039Z,12.97
2022-12-24T22:06:31.504Z,15.00
2022-12-24T22:09:17.510Z,13.30
2022-12-24T22:11:54.533Z,14.53
2022-12-24T22:14:24.749Z,13.63
2022-12-24T22:16:57.467Z,14.80
2022-12-24T22:19:26.324Z,13.37
2022-12-24T22:21:54.974Z,14.40
2022-12-24T22:24:25.870Z,14.00
2022-12-24T22:26:57.639Z,14.13
2022-12-24T22:29:27.071Z,13.43
2022-12-24T22:31:57.763Z,14.43
2022-12-24T22:34:27.622Z,14.20
2022-12-24T22:36:59.091Z,16.43
2022-12-24T22:39:28.187Z,14.77
2022-12-24T22:41:58.205Z,14.07
2022-12-24T22:44:27.760Z,13.60
2022-12-24T22:46:59.873Z,14.67
2022-12-24T22:49:28.585Z,14.00
2022-12-24T22:51:58.814Z,13.97
2022-12-24T22:54:27.399Z,14.70
2022-12-24T22:56:56.574Z,14.70
2022-12-24T22:59:25.369Z,14.30
2022-12-24T23:01:58.451Z,14.90
2022-12-24T23:04:27.642Z,15.73
2022-12-24T23:06:56.686Z,14.83
2022-12-24T23:09:25.369Z,15.07
2022-12-24T23:11:56.867Z,14.90
2022-12-24T23:14:46.004Z,16.17
2022-12-24T23:17:18.937Z,15.93
2022-12-24T23:19:48.245Z,14.10
2022-12-24T23:22:17.228Z,15.27
2022-12-24T23:24:48.974Z,14.63
2022-12-24T23:27:17.782Z,16.17
2022-12-24T23:29:48.976Z,15.13
2022-12-24T23:32:19.017Z,15.57
2022-12-24T23:34:48.363Z,16.33
2022-12-24T23:37:20.027Z,15.83
2022-12-24T23:39:49.053Z,14.87
2022-12-24T23:42:17.757Z,15.63
2022-12-24T23:44:48.288Z,15.07
2022-12-24T23:47:20.066Z,14.00
2022-12-24T23:49:53.262Z,15.03
2022-12-24T23:52:21.841Z,14.10
2022-12-24T23:54:50.879Z,13.70
2022-12-24T23:57:19.950Z,14.37
2022-12-24T23:59:49.010Z,13.93
